Latest Weather Observations for Strathalbyn

IDS60901

Issued at 7:41 pm CDT Monday 5 December 2022 (issued every 10 minutes, with the page automatically refreshed every 10 minutes)

About weather observations | Map of Adelaide area stations | Latest observations for Adelaide area | Other Formats
Station Details ID: 024580 Name: STRATHALBYN RACECOURSE Lat: -35.28 Lon: 138.89 Height: 58.0 m
Data from the previous 72 hours. | See also: Recent months at Strathalbyn
Date/Time
CDT
Temp
°C
App
Temp
°C
Dew
Point
°C
Rel
Hum
%
Delta-T
°C
Wind Press
QNH
hPa
Press
MSL
hPa
Rain since
9am
mm
Dir  Spd
km/h
Gust
km/h
Spd
kts
Gust
kts
05/07:30pm 14.7 9.4 7.0 60 3.8 S 24 32 13 17 1015.9 1015.8 0.0
05/07:00pm 15.6 9.6 7.1 57 4.2 S 28 41 15 22 1015.9 1015.8 0.0
05/06:30pm 16.4 10.3 6.8 53 4.7 S 28 33 15 18 1015.7 1015.6 0.0
05/06:00pm 16.9 10.8 6.7 51 5.0 S 28 39 15 21 1015.5 1015.4 0.0
05/05:30pm 17.5 11.6 7.3 51 5.1 S 28 35 15 19 1015.7 1015.6 0.0
05/05:00pm 18.0 12.0 7.1 49 5.5 SSW 28 35 15 19 1015.9 1015.8 0.0
05/04:30pm 18.0 12.3 6.8 48 5.6 S 26 33 14 18 1016.1 1016.0 0.0
05/04:00pm 18.2 12.6 7.0 48 5.6 S 26 37 14 20 1016.3 1016.2 0.0
05/03:30pm 18.8 12.5 7.3 47 5.8 SSW 30 44 16 24 1016.1 1016.0 0.0
05/03:00pm 18.6 12.7 7.4 48 5.7 S 28 39 15 21 1016.4 1016.3 0.0
05/02:46pm 19.1 13.4 8.4 50 5.6 S 28 46 15 25 1016.4 1016.3 0.0
05/02:30pm 18.3 11.8 8.0 51 5.3 S 32 46 17 25 1016.3 1016.2 0.0
05/02:00pm 18.5 12.8 8.5 52 5.2 S 28 41 15 22 1016.4 1016.3 0.0
05/01:30pm 17.9 12.2 8.2 53 5.0 S 28 41 15 22 1016.4 1016.3 0.0
05/01:00pm 18.1 11.7 8.7 54 4.9 S 32 48 17 26 1016.4 1016.3 0.0
05/12:58pm 18.7 12.8 9.2 54 5.0 S 30 48 16 26 1016.4 1016.3 0.0
05/12:30pm 18.3 12.7 8.8 54 4.9 S 28 41 15 22 1016.5 1016.4 0.0
05/12:00pm 18.6 13.3 9.7 56 4.7 SSE 28 35 15 19 1016.7 1016.6 0.0
05/11:30am 17.6 12.3 10.0 61 4.0 S 28 37 15 20 1016.8 1016.7 0.0
05/11:00am 17.0 11.1 8.9 59 4.2 SSE 30 41 16 22 1016.6 1016.5 0.0
05/10:30am 17.8 13.0 8.9 56 4.6 SSE 24 35 13 19 1016.2 1016.1 0.0
05/10:00am 16.8 10.9 9.0 60 4.0 S 30 41 16 22 1016.1 1016.0 0.0
05/09:30am 16.7 11.7 9.4 62 3.8 SSE 26 35 14 19 1016.1 1016.0 0.0
05/09:00am 16.9 11.4 9.3 61 4.0 S 28 37 15 20 1015.7 1015.6 0.0
05/08:30am 16.3 11.1 10.2 67 3.2 SSE 28 39 15 21 1015.6 1015.5 0.0
05/08:00am 15.9 11.5 10.4 70 2.9 S 24 32 13 17 1015.4 1015.3 0.0
05/07:30am 15.6 11.4 11.0 74 2.5 SSE 24 35 13 19 1015.2 1015.1 0.0
05/07:00am 14.8 11.4 11.2 79 1.9 S 20 28 11 15 1014.9 1014.8 0.0
05/06:30am 15.4 12.1 9.7 69 3.0 S 17 22 9 12 1014.9 1014.8 0.0
05/06:00am 15.3 11.5 9.0 66 3.2 S 19 26 10 14 1014.7 1014.6 0.0
05/05:30am 14.9 10.4 10.1 73 2.5 S 24 33 13 18 1014.6 1014.5 0.0
05/05:00am 15.5 10.8 9.2 66 3.2 S 24 32 13 17 1014.2 1014.1 0.0
05/04:30am 15.3 11.5 9.7 69 2.9 S 20 32 11 17 1013.8 1013.7 0.0
05/04:00am 15.4 10.9 10.2 71 2.7 S 24 33 13 18 1013.7 1013.6 0.0
05/03:30am 15.6 9.8 9.5 67 3.2 S 30 37 16 20 1013.7 1013.6 0.0
05/03:00am 15.7 10.7 9.6 67 3.2 SSW 26 39 14 21 1013.7 1013.6 0.0
05/02:30am 15.6 10.0 10.2 70 2.8 SSW 30 39 16 21 1013.4 1013.3 0.0
05/02:00am 15.5 10.4 10.7 73 2.5 SSW 28 41 15 22 1013.7 1013.6 0.0
05/01:30am 15.2 11.5 11.4 78 2.0 SSW 22 28 12 15 1013.6 1013.5 0.0
05/01:00am 15.5 11.4 11.3 76 2.3 SSW 24 30 13 16 1014.2 1014.1 0.0
05/12:30am 15.8 11.2 11.2 74 2.5 SSW 26 33 14 18 1014.3 1014.2 0.0
05/12:00am 16.1 12.7 11.3 73 2.6 SW 20 30 11 16 1014.5 1014.4 0.0
 
Date/Time
CDT
Temp
°C
App
Temp
°C
Dew
Point
°C
Rel
Hum
%
Delta-T
°C
Wind Press
QNH
hPa
Press
MSL
hPa
Rain since
9am
mm
Dir  Spd
km/h
Gust
km/h
Spd
kts
Gust
kts
04/11:30pm 16.1 12.0 11.3 73 2.6 SSW 24 33 13 18 1014.3 1014.2 0.0
04/11:00pm 16.2 12.5 11.4 73 2.6 SSW 22 30 12 16 1014.3 1014.2 0.0
04/10:30pm 16.3 12.3 11.7 74 2.5 SSW 24 33 13 18 1014.3 1014.2 0.0
04/10:00pm 16.4 12.8 11.8 74 2.5 SW 22 30 12 16 1014.6 1014.5 0.0
04/09:30pm 16.4 11.2 11.6 73 2.6 SW 30 43 16 23 1014.1 1014.0 0.0
04/09:00pm 16.4 11.6 11.8 74 2.5 SSW 28 41 15 22 1013.2 1013.1 0.0
04/08:30pm 16.5 11.1 12.1 75 2.4 SW 32 43 17 23 1012.8 1012.7 0.0
04/08:00pm 16.6 10.3 12.2 75 2.4 SW 37 48 20 26 1012.1 1011.9 0.0
04/07:30pm 16.8 10.9 12.3 75 2.5 SSW 35 48 19 26 1011.6 1011.4 0.0
04/07:00pm 17.2 11.3 12.3 73 2.7 SSW 35 48 19 26 1011.1 1010.9 0.0
04/06:30pm 18.8 13.2 13.2 70 3.2 SSW 35 46 19 25 1010.3 1010.1 0.0
04/06:00pm 19.8 15.4 14.0 69 3.4 SSW 30 43 16 23 1010.1 1009.9 0.0
04/05:30pm 21.0 17.5 14.4 66 3.9 SSW 26 37 14 20 1009.5 1009.3 0.0
04/05:00pm 19.6 14.9 14.4 72 3.0 SSW 32 48 17 26 1009.6 1009.4 0.0
04/04:30pm 20.5 15.6 14.4 68 3.6 SSW 33 44 18 24 1009.4 1009.2 0.0
04/04:19pm 21.6 17.7 14.5 64 4.2 SSW 28 48 15 26 1009.5 1009.3 0.0
04/04:00pm 24.2 20.5 14.9 56 5.6 SSW 28 35 15 19 1009.3 1009.1 0.0
04/03:30pm 26.7 22.4 14.5 47 7.3 SSW 30 35 16 19 1009.2 1009.0 0.0
04/03:20pm 28.0 23.8 11.1 35 9.7 W 24 35 13 19 1009.2 1009.0 0.0
04/03:00pm 34.2 27.4 2.9 14 16.2 W 28 39 15 21 1008.7 1008.5 0.0
04/02:30pm 33.3 27.1 2.2 14 15.8 W 24 37 13 20 1008.8 1008.6 0.0
04/02:24pm 33.5 26.6 2.4 14 15.9 W 28 46 15 25 1008.7 1008.5 0.0
04/02:00pm 33.4 25.0 1.3 13 16.1 WNW 35 52 19 28 1008.4 1008.2 0.0
04/01:36pm 33.6 25.7 2.4 14 15.9 WNW 33 52 18 28 1008.3 1008.1 0.0
04/01:30pm 33.6 25.2 1.4 13 16.2 WNW 35 52 19 28 1008.3 1008.1 0.0
04/01:00pm 34.7 25.5 1.1 12 16.9 WNW 39 63 21 34 1008.6 1008.4 0.0
04/12:44pm 34.4 25.5 0.9 12 16.8 NW 37 56 20 30 1008.7 1008.5 0.0
04/12:30pm 34.8 26.3 1.2 12 17.0 WNW 35 46 19 25 1008.9 1008.7 0.0
04/12:16pm 34.3 25.6 -0.4 11 17.0 WNW 35 56 19 30 1009.1 1008.9 0.0
04/12:00pm 34.3 26.7 0.8 12 16.7 NW 30 44 16 24 1009.2 1009.0 0.0
04/11:49am 34.2 26.8 1.9 13 16.4 NW 30 48 16 26 1009.4 1009.2 0.0
04/11:30am 33.2 24.7 3.1 15 15.5 NW 37 48 20 26 1009.5 1009.3 0.0
04/11:00am 33.0 26.3 5.5 18 14.7 NW 30 41 16 22 1009.5 1009.3 0.0
04/10:48am 33.5 26.3 5.9 18 14.9 NW 33 52 18 28 1009.5 1009.3 0.0
04/10:30am 32.3 25.2 5.7 19 14.2 NW 32 43 17 23 1009.6 1009.4 0.0
04/10:00am 32.1 24.1 4.0 17 14.6 NW 35 52 19 28 1009.5 1009.3 0.0
04/09:30am 31.4 24.4 4.2 18 14.1 NW 30 44 16 24 1009.7 1009.5 0.0
04/09:07am 31.0 25.9 3.9 18 14.0 NNW 20 35 11 19 1009.9 1009.7 0.0
04/09:00am 31.0 27.6 3.9 18 14.0 N 11 17 6 9 1010.0 1009.8 0.0
04/08:30am 27.9 25.2 7.2 27 11.1 NNE 11 15 6 8 1010.3 1010.1 0.0
04/08:00am 25.8 22.5 6.4 29 10.1 N 13 17 7 9 1010.4 1010.2 0.0
04/07:30am 22.6 19.1 5.5 33 8.6 NNW 13 17 7 9 1010.3 1010.1 0.0
04/07:00am 19.2 15.5 4.6 38 7.0 N 13 15 7 8 1010.0 1009.8 0.0
04/06:30am 17.2 12.5 3.1 39 6.5 NNW 17 20 9 11 1010.1 1009.9 0.0
04/06:00am 16.1 10.9 2.5 40 6.1 NNW 19 20 10 11 1010.1 1009.9 0.0
04/05:30am 15.1 10.8 3.3 45 5.4 NNW 15 17 8 9 1010.1 1009.9 0.0
04/05:00am 15.0 10.9 4.1 48 5.0 NNW 15 17 8 9 1010.0 1009.8 0.0
04/04:30am 14.3 10.7 4.9 53 4.4 NNW 13 15 7 8 1010.0 1009.8 0.0
04/04:00am 14.2 11.5 5.8 57 4.0 N 9 11 5 6 1010.1 1009.9 0.0
04/03:30am 15.1 12.6 6.4 56 4.2 N 9 11 5 6 1010.3 1010.1 0.0
04/03:00am 15.4 12.8 5.9 53 4.6 N 9 13 5 7 1010.7 1010.5 0.0
04/02:30am 15.5 12.0 5.4 51 4.8 NNW 13 15 7 8 1010.9 1010.7 0.0
04/02:00am 14.5 11.9 6.3 58 4.0 N 9 11 5 6 1011.1 1010.9 0.0
04/01:30am 14.6 11.2 5.7 55 4.2 NNW 13 15 7 8 1011.5 1011.3 0.0
04/01:00am 16.0 12.2 5.9 51 4.9 NNW 15 17 8 9 1011.8 1011.6 0.0
04/12:30am 15.9 12.2 6.3 53 4.7 NNW 15 19 8 10 1012.1 1011.9 0.0
04/12:00am 16.5 12.6 7.2 54 4.6 NNW 17 20 9 11 1012.3 1012.1 0.0
 
Date/Time
CDT
Temp
°C
App
Temp
°C
Dew
Point
°C
Rel
Hum
%
Delta-T
°C
Wind Press
QNH
hPa
Press
MSL
hPa
Rain since
9am
mm
Dir  Spd
km/h
Gust
km/h
Spd
kts
Gust
kts
03/11:30pm 16.3 12.9 7.8 57 4.3 NNW 15 17 8 9 1012.4 1012.2 0.0
03/11:00pm 17.1 13.3 7.7 54 4.8 NW 17 19 9 10 1012.6 1012.4 0.0
03/10:30pm 17.7 14.0 8.0 53 5.0 NNW 17 20 9 11 1012.6 1012.4 0.0
03/10:00pm 16.8 13.4 9.2 61 4.0 NNW 17 17 9 9 1012.6 1012.4 0.0
03/09:30pm 17.8 15.0 8.4 54 4.8 NNW 13 15 7 8 1012.4 1012.2 0.0
03/09:00pm 18.2 16.8 7.3 49 5.5 NW 4 7 2 4 1012.1 1011.9 0.0
03/08:30pm 19.2 17.5 7.6 47 5.9 W 6 7 3 4 1012.1 1011.9 0.0
03/08:00pm 24.7 21.3 3.9 26 10.3 SSW 11 13 6 7 1012.0 1011.8 0.0
03/07:30pm 27.3 23.5 3.7 22 11.8 SSW 13 15 7 8 1011.8 1011.6 0.0
03/07:00pm 28.6 24.3 3.5 20 12.6 S 15 20 8 11 1011.5 1011.3 0.0
03/06:30pm 29.4 24.0 2.6 18 13.4 S 20 26 11 14 1011.2 1011.0 0.0
03/06:00pm 30.0 25.3 3.1 18 13.6 S 17 24 9 13 1011.2 1011.0 0.0
03/05:30pm 30.1 24.5 1.5 16 14.1 S 20 30 11 16 1011.2 1011.0 0.0
03/05:00pm 30.1 24.2 1.5 16 14.1 S 22 32 12 17 1011.3 1011.1 0.0
03/04:30pm 31.0 25.0 3.1 17 14.2 S 24 33 13 18 1011.3 1011.1 0.0
03/04:00pm 31.8 25.9 3.8 17 14.5 S 24 33 13 18 1011.3 1011.1 0.0
03/03:30pm 32.1 28.1 4.8 18 14.4 SSE 15 26 8 14 1011.2 1011.0 0.0
03/03:00pm 32.0 27.5 2.1 15 15.0 W 15 22 8 12 1011.6 1011.4 0.0
03/02:30pm 31.8 28.0 2.0 15 14.9 N 11 17 6 9 1011.8 1011.6 0.0
03/02:00pm 31.7 28.6 -0.1 13 15.4 NE 6 9 3 5 1012.1 1011.9 0.0
03/01:30pm 31.5 27.2 0.8 14 15.1 NW 13 20 7 11 1012.3 1012.1 0.0
03/01:00pm 30.9 26.4 2.2 16 14.3 W 15 28 8 15 1012.6 1012.4 0.0
03/12:30pm 30.8 27.9 1.2 15 14.5 NE 6 13 3 7 1012.8 1012.7 0.0
03/12:00pm 30.1 26.0 -0.3 14 14.5 NW 11 17 6 9 1013.2 1013.1 0.0
03/11:30am 30.0 25.6 0.6 15 14.2 N 13 19 7 10 1013.4 1013.3 0.0
03/11:00am 29.4 25.5 1.0 16 13.8 N 11 19 6 10 1013.5 1013.4 0.0
03/10:30am 28.8 26.1 3.6 20 12.7 NNE 7 15 4 8 1013.6 1013.5 0.0
03/10:00am 27.9 26.0 7.7 28 10.9 NE 7 13 4 7 1013.7 1013.6 0.0
03/09:30am 25.8 24.1 8.3 33 9.4 NNE 7 11 4 6 1013.9 1013.8 0.0
03/09:00am 24.0 22.3 9.9 41 7.7 NE 9 11 5 6 1014.1 1014.0 0.0
03/08:30am 23.0 22.2 11.1 47 6.6 ENE 6 9 3 5 1014.1 1014.0 0.0
03/08:00am 20.8 20.2 11.7 56 5.1 NNE 6 7 3 4 1013.8 1013.7 0.0
03/07:30am 18.3 17.1 10.4 60 4.2 N 7 9 4 5 1013.5 1013.4 0.0
03/07:00am 16.0 13.9 9.9 67 3.2 N 11 13 6 7 1013.5 1013.4 0.0
03/06:30am 13.7 10.9 8.7 72 2.5 NNW 13 15 7 8 1013.4 1013.3 0.0
03/06:00am 12.0 8.6 7.7 75 2.1 NNW 15 17 8 9 1013.2 1013.1 0.0
03/05:30am 12.5 9.1 7.8 73 2.3 NNW 15 17 8 9 1013.1 1013.0 0.0
03/05:00am 12.6 9.2 7.5 71 2.5 NNW 15 17 8 9 1013.0 1012.9 0.0
03/04:30am 12.5 8.6 7.2 70 2.6 NW 17 19 9 10 1012.9 1012.8 0.0
03/04:00am 12.2 8.9 6.5 68 2.7 NNW 13 17 7 9 1013.1 1013.0 0.0
03/03:30am 12.4 8.3 6.2 66 2.9 NNW 17 17 9 9 1013.0 1012.9 0.0
03/03:00am 12.8 8.7 6.2 64 3.1 NW 17 17 9 9 1013.2 1013.1 0.0
03/02:30am 13.1 9.1 6.5 64 3.2 NNW 17 20 9 11 1013.5 1013.4 0.0
03/02:00am 12.7 8.3 6.7 67 2.9 NNW 19 22 10 12 1013.7 1013.6 0.0
03/01:30am 12.6 9.1 7.1 69 2.7 NNW 15 19 8 10 1014.0 1013.9 0.0
03/01:00am 11.9 9.6 7.4 74 2.2 NNW 9 11 5 6 1014.4 1014.3 0.0
03/12:30am 12.4 10.3 8.1 75 2.1 NNW 9 11 5 6 1014.7 1014.6 0.0
03/12:00am 13.4 10.4 9.1 75 2.2 NNW 15 19 8 10 1014.8 1014.7 0.0
 
Date/Time
CDT
Temp
°C
App
Temp
°C
Dew
Point
°C
Rel
Hum
%
Delta-T
°C
Wind Press
QNH
hPa
Press
MSL
hPa
Rain since
9am
mm
Dir  Spd
km/h
Gust
km/h
Spd
kts
Gust
kts
02/11:30pm 13.2 10.7 9.6 79 1.8 NNW 13 15 7 8 1015.0 1014.9 0.0
02/11:00pm 13.6 11.2 10.2 80 1.8 NNW 13 17 7 9 1015.0 1014.9 0.0
02/10:30pm 13.5 11.9 10.1 80 1.8 NW 9 11 5 6 1015.0 1014.9 0.0
02/10:00pm 14.0 12.5 10.4 79 1.9 NNW 9 11 5 6 1015.0 1014.9 0.0
02/09:30pm 15.2 13.8 11.0 76 2.2 WSW 9 13 5 7 1014.9 1014.8 0.0
02/09:00pm 16.2 15.3 11.2 72 2.7 SW 7 9 4 5 1014.8 1014.7 0.0
02/08:30pm 17.1 15.8 11.4 69 3.1 SW 9 13 5 7 1014.5 1014.4 0.0
02/08:00pm 18.5 17.0 11.8 65 3.7 SW 11 15 6 8 1014.4 1014.3 0.0

Latest Capital City Observations: Canberra | Sydney | Melbourne | Brisbane | Adelaide | Perth | Hobart | Darwin

Other formats

Comma delimited format used in spreadsheet applications
http://www.bom.gov.au/fwo/IDS60901/IDS60901.94814.axf

JavaScript Object Notation format (JSON) in row-major order
http://www.bom.gov.au/fwo/IDS60901/IDS60901.94814.json

Data quality

Most of these data are generated automatically and are frequently updated. Quality checks on data are not normally performed. It is possible for incorrect values to appear. Refer to information at About Latest Weather Observations and please check the disclaimer before using these data.